sensor_id;sensor_type;location;lat;lon;timestamp;P1;durP1;ratioP1;P2;durP2;ratioP2
4323;SDS011;2175;51.018;6.994;2023-05-14T00:02:00;16.80;;;12.10;;
4323;SDS011;2175;51.018;6.994;2023-05-14T00:04:27;16.83;;;11.90;;
4323;SDS011;2175;51.018;6.994;2023-05-14T00:06:52;13.20;;;11.23;;
4323;SDS011;2175;51.018;6.994;2023-05-14T00:09:18;14.87;;;11.67;;
4323;SDS011;2175;51.018;6.994;2023-05-14T00:11:43;15.80;;;11.17;;
4323;SDS011;2175;51.018;6.994;2023-05-14T00:14:10;15.90;;;12.00;;
4323;SDS011;2175;51.018;6.994;2023-05-14T00:16:35;14.67;;;10.63;;
4323;SDS011;2175;51.018;6.994;2023-05-14T00:19:01;12.90;;;11.40;;
4323;SDS011;2175;51.018;6.994;2023-05-14T00:21:26;16.10;;;12.93;;
4323;SDS011;2175;51.018;6.994;2023-05-14T00:23:52;17.00;;;12.30;;
4323;SDS011;2175;51.018;6.994;2023-05-14T00:26:17;19.10;;;12.47;;
4323;SDS011;2175;51.018;6.994;2023-05-14T00:28:44;21.67;;;13.20;;
4323;SDS011;2175;51.018;6.994;2023-05-14T00:31:09;15.63;;;11.23;;
4323;SDS011;2175;51.018;6.994;2023-05-14T00:33:35;13.33;;;11.87;;
4323;SDS011;2175;51.018;6.994;2023-05-14T00:36:02;15.97;;;11.73;;
4323;SDS011;2175;51.018;6.994;2023-05-14T00:38:28;16.83;;;11.93;;
4323;SDS011;2175;51.018;6.994;2023-05-14T00:40:53;17.23;;;12.40;;
4323;SDS011;2175;51.018;6.994;2023-05-14T00:43:19;23.60;;;12.20;;
4323;SDS011;2175;51.018;6.994;2023-05-14T00:45:47;24.63;;;11.80;;
4323;SDS011;2175;51.018;6.994;2023-05-14T00:48:15;19.30;;;11.70;;
4323;SDS011;2175;51.018;6.994;2023-05-14T00:50:42;15.00;;;12.10;;
4323;SDS011;2175;51.018;6.994;2023-05-14T00:53:08;14.27;;;11.43;;
4323;SDS011;2175;51.018;6.994;2023-05-14T00:55:38;14.53;;;11.30;;
4323;SDS011;2175;51.018;6.994;2023-05-14T00:58:06;14.30;;;11.43;;
4323;SDS011;2175;51.018;6.994;2023-05-14T01:00:34;17.70;;;12.50;;
4323;SDS011;2175;51.018;6.994;2023-05-14T01:03:01;13.23;;;11.20;;
4323;SDS011;2175;51.018;6.994;2023-05-14T01:05:28;17.43;;;11.70;;
4323;SDS011;2175;51.018;6.994;2023-05-14T01:08:12;19.13;;;11.87;;
4323;SDS011;2175;51.018;6.994;2023-05-14T01:13:26;17.33;;;11.53;;
4323;SDS011;2175;51.018;6.994;2023-05-14T01:16:29;18.87;;;10.67;;
4323;SDS011;2175;51.018;6.994;2023-05-14T01:18:57;12.90;;;10.80;;
4323;SDS011;2175;51.018;6.994;2023-05-14T01:21:37;15.20;;;11.20;;
4323;SDS011;2175;51.018;6.994;2023-05-14T01:24:05;20.80;;;11.17;;
4323;SDS011;2175;51.018;6.994;2023-05-14T01:26:31;15.40;;;9.70;;
4323;SDS011;2175;51.018;6.994;2023-05-14T01:29:03;13.43;;;10.77;;
4323;SDS011;2175;51.018;6.994;2023-05-14T01:31:36;12.90;;;10.43;;
4323;SDS011;2175;51.018;6.994;2023-05-14T01:34:04;15.70;;;9.90;;
4323;SDS011;2175;51.018;6.994;2023-05-14T01:36:32;13.63;;;9.87;;
4323;SDS011;2175;51.018;6.994;2023-05-14T01:38:59;13.03;;;10.23;;
4323;SDS011;2175;51.018;6.994;2023-05-14T01:41:26;12.37;;;10.43;;
4323;SDS011;2175;51.018;6.994;2023-05-14T01:43:52;13.90;;;11.67;;
4323;SDS011;2175;51.018;6.994;2023-05-14T01:46:18;15.23;;;10.43;;
4323;SDS011;2175;51.018;6.994;2023-05-14T01:48:45;13.07;;;10.67;;
4323;SDS011;2175;51.018;6.994;2023-05-14T01:51:10;18.70;;;9.90;;
4323;SDS011;2175;51.018;6.994;2023-05-14T01:53:38;13.53;;;10.83;;
4323;SDS011;2175;51.018;6.994;2023-05-14T01:56:04;14.53;;;10.67;;
4323;SDS011;2175;51.018;6.994;2023-05-14T01:58:30;14.40;;;11.53;;
4323;SDS011;2175;51.018;6.994;2023-05-14T02:00:55;15.20;;;10.70;;
4323;SDS011;2175;51.018;6.994;2023-05-14T02:03:21;14.23;;;11.23;;
4323;SDS011;2175;51.018;6.994;2023-05-14T02:05:46;14.00;;;10.20;;
4323;SDS011;2175;51.018;6.994;2023-05-14T02:08:12;13.73;;;9.60;;
4323;SDS011;2175;51.018;6.994;2023-05-14T02:10:37;12.43;;;9.97;;
4323;SDS011;2175;51.018;6.994;2023-05-14T02:13:03;12.60;;;9.73;;
4323;SDS011;2175;51.018;6.994;2023-05-14T02:15:29;15.03;;;10.67;;
4323;SDS011;2175;51.018;6.994;2023-05-14T02:17:54;14.57;;;10.87;;
4323;SDS011;2175;51.018;6.994;2023-05-14T02:20:20;14.30;;;10.73;;
4323;SDS011;2175;51.018;6.994;2023-05-14T02:22:45;14.30;;;11.00;;
4323;SDS011;2175;51.018;6.994;2023-05-14T02:25:11;12.00;;;10.03;;
4323;SDS011;2175;51.018;6.994;2023-05-14T02:27:37;13.70;;;9.70;;
4323;SDS011;2175;51.018;6.994;2023-05-14T02:30:03;12.20;;;9.80;;
4323;SDS011;2175;51.018;6.994;2023-05-14T02:32:29;16.07;;;10.33;;
4323;SDS011;2175;51.018;6.994;2023-05-14T02:34:54;11.73;;;9.50;;
4323;SDS011;2175;51.018;6.994;2023-05-14T02:37:21;13.83;;;11.20;;
4323;SDS011;2175;51.018;6.994;2023-05-14T02:39:46;14.73;;;10.07;;
4323;SDS011;2175;51.018;6.994;2023-05-14T02:42:13;12.00;;;10.20;;
4323;SDS011;2175;51.018;6.994;2023-05-14T02:44:38;13.27;;;11.00;;
4323;SDS011;2175;51.018;6.994;2023-05-14T02:47:04;14.43;;;10.57;;
4323;SDS011;2175;51.018;6.994;2023-05-14T02:49:30;12.27;;;9.97;;
4323;SDS011;2175;51.018;6.994;2023-05-14T02:51:56;13.07;;;10.43;;
4323;SDS011;2175;51.018;6.994;2023-05-14T02:54:21;13.20;;;10.40;;
4323;SDS011;2175;51.018;6.994;2023-05-14T02:56:47;16.83;;;10.70;;
4323;SDS011;2175;51.018;6.994;2023-05-14T02:59:12;15.10;;;10.57;;
4323;SDS011;2175;51.018;6.994;2023-05-14T03:01:38;12.90;;;10.17;;
4323;SDS011;2175;51.018;6.994;2023-05-14T03:04:04;13.43;;;9.37;;
4323;SDS011;2175;51.018;6.994;2023-05-14T03:06:29;21.40;;;11.43;;
4323;SDS011;2175;51.018;6.994;2023-05-14T03:08:55;12.17;;;10.17;;
4323;SDS011;2175;51.018;6.994;2023-05-14T03:11:21;11.77;;;10.57;;
4323;SDS011;2175;51.018;6.994;2023-05-14T03:13:46;13.83;;;11.10;;
4323;SDS011;2175;51.018;6.994;2023-05-14T03:16:12;19.73;;;11.13;;
4323;SDS011;2175;51.018;6.994;2023-05-14T03:18:37;15.73;;;11.10;;
4323;SDS011;2175;51.018;6.994;2023-05-14T03:21:03;12.70;;;10.43;;
4323;SDS011;2175;51.018;6.994;2023-05-14T03:23:29;15.23;;;11.00;;
4323;SDS011;2175;51.018;6.994;2023-05-14T03:25:56;13.37;;;10.90;;
4323;SDS011;2175;51.018;6.994;2023-05-14T03:28:21;13.57;;;11.33;;
4323;SDS011;2175;51.018;6.994;2023-05-14T03:30:47;21.47;;;11.83;;
4323;SDS011;2175;51.018;6.994;2023-05-14T03:33:13;13.60;;;10.10;;
4323;SDS011;2175;51.018;6.994;2023-05-14T03:35:38;17.10;;;11.90;;
4323;SDS011;2175;51.018;6.994;2023-05-14T03:38:04;15.30;;;11.77;;
4323;SDS011;2175;51.018;6.994;2023-05-14T03:40:30;14.70;;;11.50;;
4323;SDS011;2175;51.018;6.994;2023-05-14T03:42:55;17.00;;;11.37;;
4323;SDS011;2175;51.018;6.994;2023-05-14T03:45:21;10.87;;;9.67;;
4323;SDS011;2175;51.018;6.994;2023-05-14T03:47:46;11.40;;;9.37;;
4323;SDS011;2175;51.018;6.994;2023-05-14T03:50:12;11.80;;;10.30;;
4323;SDS011;2175;51.018;6.994;2023-05-14T03:52:38;19.10;;;12.43;;
4323;SDS011;2175;51.018;6.994;2023-05-14T03:55:04;15.70;;;10.33;;
4323;SDS011;2175;51.018;6.994;2023-05-14T03:57:30;16.50;;;10.93;;
4323;SDS011;2175;51.018;6.994;2023-05-14T03:59:55;13.40;;;10.80;;
4323;SDS011;2175;51.018;6.994;2023-05-14T04:02:21;13.07;;;10.60;;
4323;SDS011;2175;51.018;6.994;2023-05-14T04:04:47;19.83;;;11.33;;
4323;SDS011;2175;51.018;6.994;2023-05-14T04:07:12;17.13;;;10.80;;
4323;SDS011;2175;51.018;6.994;2023-05-14T04:09:38;13.63;;;10.87;;
4323;SDS011;2175;51.018;6.994;2023-05-14T04:12:03;15.83;;;12.83;;
4323;SDS011;2175;51.018;6.994;2023-05-14T04:14:29;14.73;;;11.47;;
4323;SDS011;2175;51.018;6.994;2023-05-14T04:16:55;12.50;;;11.20;;
4323;SDS011;2175;51.018;6.994;2023-05-14T04:19:20;14.10;;;11.03;;
4323;SDS011;2175;51.018;6.994;2023-05-14T04:21:46;14.60;;;11.80;;
4323;SDS011;2175;51.018;6.994;2023-05-14T04:24:11;14.67;;;12.03;;
4323;SDS011;2175;51.018;6.994;2023-05-14T04:26:37;14.33;;;10.43;;
4323;SDS011;2175;51.018;6.994;2023-05-14T04:29:03;13.43;;;11.30;;
4323;SDS011;2175;51.018;6.994;2023-05-14T04:31:28;12.63;;;11.07;;
4323;SDS011;2175;51.018;6.994;2023-05-14T04:33:55;13.97;;;11.33;;
4323;SDS011;2175;51.018;6.994;2023-05-14T04:36:21;12.60;;;10.70;;
4323;SDS011;2175;51.018;6.994;2023-05-14T04:38:46;12.23;;;10.93;;
4323;SDS011;2175;51.018;6.994;2023-05-14T04:41:12;12.20;;;10.60;;
4323;SDS011;2175;51.018;6.994;2023-05-14T04:43:38;17.27;;;10.20;;
4323;SDS011;2175;51.018;6.994;2023-05-14T04:46:04;14.20;;;11.40;;
4323;SDS011;2175;51.018;6.994;2023-05-14T04:48:29;12.30;;;11.03;;
4323;SDS011;2175;51.018;6.994;2023-05-14T04:50:55;12.33;;;10.70;;
4323;SDS011;2175;51.018;6.994;2023-05-14T04:53:21;13.10;;;11.00;;
4323;SDS011;2175;51.018;6.994;2023-05-14T04:55:46;12.60;;;10.17;;
4323;SDS011;2175;51.018;6.994;2023-05-14T04:58:12;11.83;;;9.60;;
4323;SDS011;2175;51.018;6.994;2023-05-14T05:00:37;13.63;;;11.30;;
4323;SDS011;2175;51.018;6.994;2023-05-14T05:03:04;11.47;;;9.80;;
4323;SDS011;2175;51.018;6.994;2023-05-14T05:05:29;12.57;;;11.10;;
4323;SDS011;2175;51.018;6.994;2023-05-14T05:07:55;14.27;;;11.70;;
4323;SDS011;2175;51.018;6.994;2023-05-14T05:10:21;12.57;;;11.33;;
4323;SDS011;2175;51.018;6.994;2023-05-14T05:12:46;13.40;;;12.00;;
4323;SDS011;2175;51.018;6.994;2023-05-14T05:15:12;13.97;;;12.63;;
4323;SDS011;2175;51.018;6.994;2023-05-14T05:17:37;13.37;;;11.50;;
4323;SDS011;2175;51.018;6.994;2023-05-14T05:20:03;13.70;;;12.30;;
4323;SDS011;2175;51.018;6.994;2023-05-14T05:22:32;15.23;;;10.93;;
4323;SDS011;2175;51.018;6.994;2023-05-14T05:24:57;13.20;;;11.27;;
4323;SDS011;2175;51.018;6.994;2023-05-14T05:27:23;15.13;;;11.80;;
4323;SDS011;2175;51.018;6.994;2023-05-14T05:29:50;13.13;;;11.50;;
4323;SDS011;2175;51.018;6.994;2023-05-14T05:32:15;14.50;;;13.00;;
4323;SDS011;2175;51.018;6.994;2023-05-14T05:34:41;12.83;;;11.50;;
4323;SDS011;2175;51.018;6.994;2023-05-14T05:37:06;15.77;;;12.40;;
4323;SDS011;2175;51.018;6.994;2023-05-14T05:39:36;13.50;;;12.10;;
4323;SDS011;2175;51.018;6.994;2023-05-14T05:42:03;14.00;;;12.50;;
4323;SDS011;2175;51.018;6.994;2023-05-14T05:44:29;14.10;;;12.20;;
4323;SDS011;2175;51.018;6.994;2023-05-14T05:46:55;14.87;;;13.27;;
4323;SDS011;2175;51.018;6.994;2023-05-14T05:49:21;18.13;;;14.10;;
4323;SDS011;2175;51.018;6.994;2023-05-14T05:51:47;17.63;;;14.50;;
4323;SDS011;2175;51.018;6.994;2023-05-14T05:54:13;20.17;;;13.67;;
4323;SDS011;2175;51.018;6.994;2023-05-14T05:56:38;20.73;;;13.07;;
4323;SDS011;2175;51.018;6.994;2023-05-14T05:59:04;15.43;;;13.30;;
4323;SDS011;2175;51.018;6.994;2023-05-14T06:01:29;17.27;;;13.47;;
4323;SDS011;2175;51.018;6.994;2023-05-14T06:03:56;15.30;;;13.70;;
4323;SDS011;2175;51.018;6.994;2023-05-14T06:06:21;18.77;;;14.40;;
4323;SDS011;2175;51.018;6.994;2023-05-14T06:08:47;16.53;;;13.50;;
4323;SDS011;2175;51.018;6.994;2023-05-14T06:11:13;16.77;;;14.40;;
4323;SDS011;2175;51.018;6.994;2023-05-14T06:13:39;18.67;;;14.63;;
4323;SDS011;2175;51.018;6.994;2023-05-14T06:16:04;17.37;;;14.73;;
4323;SDS011;2175;51.018;6.994;2023-05-14T06:18:30;17.10;;;14.63;;
4323;SDS011;2175;51.018;6.994;2023-05-14T06:20:56;18.03;;;14.20;;
4323;SDS011;2175;51.018;6.994;2023-05-14T06:23:24;15.67;;;14.00;;
4323;SDS011;2175;51.018;6.994;2023-05-14T06:25:50;19.17;;;14.70;;
4323;SDS011;2175;51.018;6.994;2023-05-14T06:28:16;19.27;;;15.17;;
4323;SDS011;2175;51.018;6.994;2023-05-14T06:30:42;18.33;;;16.20;;
4323;SDS011;2175;51.018;6.994;2023-05-14T06:33:09;20.17;;;16.03;;
4323;SDS011;2175;51.018;6.994;2023-05-14T06:35:37;19.10;;;16.47;;
4323;SDS011;2175;51.018;6.994;2023-05-14T06:38:03;17.07;;;15.27;;
4323;SDS011;2175;51.018;6.994;2023-05-14T06:40:29;22.60;;;15.60;;
4323;SDS011;2175;51.018;6.994;2023-05-14T06:42:56;22.33;;;17.23;;
4323;SDS011;2175;51.018;6.994;2023-05-14T06:45:21;19.17;;;17.10;;
4323;SDS011;2175;51.018;6.994;2023-05-14T06:47:47;18.07;;;16.13;;
4323;SDS011;2175;51.018;6.994;2023-05-14T06:50:12;20.63;;;16.33;;
4323;SDS011;2175;51.018;6.994;2023-05-14T06:52:38;19.67;;;17.00;;
4323;SDS011;2175;51.018;6.994;2023-05-14T06:55:04;18.60;;;16.60;;
4323;SDS011;2175;51.018;6.994;2023-05-14T06:57:30;20.07;;;17.87;;
4323;SDS011;2175;51.018;6.994;2023-05-14T06:59:55;20.60;;;16.33;;
4323;SDS011;2175;51.018;6.994;2023-05-14T07:02:21;19.90;;;15.33;;
4323;SDS011;2175;51.018;6.994;2023-05-14T07:04:47;16.63;;;14.47;;
4323;SDS011;2175;51.018;6.994;2023-05-14T07:07:12;19.90;;;16.07;;
4323;SDS011;2175;51.018;6.994;2023-05-14T07:09:39;18.03;;;14.83;;
4323;SDS011;2175;51.018;6.994;2023-05-14T07:12:06;17.23;;;15.33;;
4323;SDS011;2175;51.018;6.994;2023-05-14T07:14:32;25.73;;;16.23;;
4323;SDS011;2175;51.018;6.994;2023-05-14T07:16:58;17.73;;;13.33;;
4323;SDS011;2175;51.018;6.994;2023-05-14T07:19:24;16.20;;;14.50;;
4323;SDS011;2175;51.018;6.994;2023-05-14T07:21:52;16.53;;;14.73;;
4323;SDS011;2175;51.018;6.994;2023-05-14T07:24:18;18.03;;;12.83;;
4323;SDS011;2175;51.018;6.994;2023-05-14T07:26:43;13.93;;;12.23;;
4323;SDS011;2175;51.018;6.994;2023-05-14T07:29:09;12.60;;;11.30;;
4323;SDS011;2175;51.018;6.994;2023-05-14T07:31:35;16.23;;;11.47;;
4323;SDS011;2175;51.018;6.994;2023-05-14T07:34:00;12.23;;;10.70;;
4323;SDS011;2175;51.018;6.994;2023-05-14T07:36:26;12.23;;;10.93;;
4323;SDS011;2175;51.018;6.994;2023-05-14T07:38:51;12.40;;;9.50;;
4323;SDS011;2175;51.018;6.994;2023-05-14T07:41:17;12.30;;;9.17;;
4323;SDS011;2175;51.018;6.994;2023-05-14T07:43:43;11.40;;;9.80;;
4323;SDS011;2175;51.018;6.994;2023-05-14T07:46:08;13.03;;;10.70;;
4323;SDS011;2175;51.018;6.994;2023-05-14T07:48:34;11.70;;;8.67;;
4323;SDS011;2175;51.018;6.994;2023-05-14T07:50:59;12.37;;;9.60;;
4323;SDS011;2175;51.018;6.994;2023-05-14T07:53:25;13.53;;;10.27;;
4323;SDS011;2175;51.018;6.994;2023-05-14T07:55:50;11.10;;;10.00;;
4323;SDS011;2175;51.018;6.994;2023-05-14T07:58:16;13.83;;;9.07;;
4323;SDS011;2175;51.018;6.994;2023-05-14T08:00:42;11.43;;;8.90;;
4323;SDS011;2175;51.018;6.994;2023-05-14T08:03:07;9.87;;;8.80;;
4323;SDS011;2175;51.018;6.994;2023-05-14T08:05:33;14.60;;;8.33;;
4323;SDS011;2175;51.018;6.994;2023-05-14T08:07:59;13.20;;;8.77;;
4323;SDS011;2175;51.018;6.994;2023-05-14T08:10:24;9.70;;;8.73;;
4323;SDS011;2175;51.018;6.994;2023-05-14T08:12:50;11.53;;;7.63;;
4323;SDS011;2175;51.018;6.994;2023-05-14T08:15:16;11.83;;;7.80;;
4323;SDS011;2175;51.018;6.994;2023-05-14T08:17:41;9.40;;;6.60;;
4323;SDS011;2175;51.018;6.994;2023-05-14T08:20:07;10.63;;;6.03;;
4323;SDS011;2175;51.018;6.994;2023-05-14T08:22:34;9.63;;;6.70;;
4323;SDS011;2175;51.018;6.994;2023-05-14T08:25:00;8.23;;;5.70;;
4323;SDS011;2175;51.018;6.994;2023-05-14T08:27:27;5.40;;;4.80;;
4323;SDS011;2175;51.018;6.994;2023-05-14T08:29:53;7.83;;;5.50;;
4323;SDS011;2175;51.018;6.994;2023-05-14T08:32:18;6.63;;;5.40;;
4323;SDS011;2175;51.018;6.994;2023-05-14T08:34:44;10.23;;;5.53;;
4323;SDS011;2175;51.018;6.994;2023-05-14T08:37:09;7.20;;;4.73;;
4323;SDS011;2175;51.018;6.994;2023-05-14T08:39:35;6.13;;;4.60;;
4323;SDS011;2175;51.018;6.994;2023-05-14T08:42:01;5.10;;;4.50;;
4323;SDS011;2175;51.018;6.994;2023-05-14T08:44:38;6.30;;;4.40;;
4323;SDS011;2175;51.018;6.994;2023-05-14T08:47:09;6.23;;;4.27;;
4323;SDS011;2175;51.018;6.994;2023-05-14T08:52:05;4.17;;;3.77;;
4323;SDS011;2175;51.018;6.994;2023-05-14T08:54:31;5.60;;;3.97;;
4323;SDS011;2175;51.018;6.994;2023-05-14T08:56:57;3.97;;;3.50;;
4323;SDS011;2175;51.018;6.994;2023-05-14T08:59:23;4.17;;;3.77;;
4323;SDS011;2175;51.018;6.994;2023-05-14T09:01:50;7.13;;;3.80;;
4323;SDS011;2175;51.018;6.994;2023-05-14T09:04:22;4.50;;;3.13;;
4323;SDS011;2175;51.018;6.994;2023-05-14T09:06:52;3.90;;;3.40;;
4323;SDS011;2175;51.018;6.994;2023-05-14T09:09:19;4.80;;;3.40;;
4323;SDS011;2175;51.018;6.994;2023-05-14T09:11:49;7.17;;;4.23;;
4323;SDS011;2175;51.018;6.994;2023-05-14T09:14:15;6.70;;;3.07;;
4323;SDS011;2175;51.018;6.994;2023-05-14T09:16:43;3.13;;;2.80;;
4323;SDS011;2175;51.018;6.994;2023-05-14T09:19:11;3.63;;;3.30;;
4323;SDS011;2175;51.018;6.994;2023-05-14T09:21:37;3.30;;;3.10;;
4323;SDS011;2175;51.018;6.994;2023-05-14T09:24:04;5.70;;;3.50;;
4323;SDS011;2175;51.018;6.994;2023-05-14T09:26:30;4.40;;;3.33;;
4323;SDS011;2175;51.018;6.994;2023-05-14T09:28:57;3.63;;;3.00;;
4323;SDS011;2175;51.018;6.994;2023-05-14T09:31:26;4.23;;;2.90;;
4323;SDS011;2175;51.018;6.994;2023-05-14T09:33:56;5.00;;;3.60;;
4323;SDS011;2175;51.018;6.994;2023-05-14T09:36:22;6.67;;;4.23;;
4323;SDS011;2175;51.018;6.994;2023-05-14T09:38:52;4.20;;;3.60;;
4323;SDS011;2175;51.018;6.994;2023-05-14T09:41:20;4.67;;;3.90;;
4323;SDS011;2175;51.018;6.994;2023-05-14T09:43:47;4.50;;;4.10;;
4323;SDS011;2175;51.018;6.994;2023-05-14T09:46:13;4.53;;;4.17;;
4323;SDS011;2175;51.018;6.994;2023-05-14T09:48:39;6.13;;;5.47;;
4323;SDS011;2175;51.018;6.994;2023-05-14T09:51:05;5.80;;;5.17;;
4323;SDS011;2175;51.018;6.994;2023-05-14T09:53:31;6.30;;;5.27;;
4323;SDS011;2175;51.018;6.994;2023-05-14T09:55:58;6.50;;;5.90;;
4323;SDS011;2175;51.018;6.994;2023-05-14T09:58:23;6.70;;;6.00;;
4323;SDS011;2175;51.018;6.994;2023-05-14T10:00:49;6.60;;;5.60;;
4323;SDS011;2175;51.018;6.994;2023-05-14T10:03:15;6.40;;;5.80;;
4323;SDS011;2175;51.018;6.994;2023-05-14T10:05:44;8.80;;;5.57;;
4323;SDS011;2175;51.018;6.994;2023-05-14T10:08:12;10.83;;;6.20;;
4323;SDS011;2175;51.018;6.994;2023-05-14T10:10:38;6.33;;;5.57;;
4323;SDS011;2175;51.018;6.994;2023-05-14T10:13:11;10.50;;;5.50;;
4323;SDS011;2175;51.018;6.994;2023-05-14T10:15:46;12.27;;;6.60;;
4323;SDS011;2175;51.018;6.994;2023-05-14T10:18:19;7.77;;;5.53;;
4323;SDS011;2175;51.018;6.994;2023-05-14T10:20:51;6.30;;;5.37;;
4323;SDS011;2175;51.018;6.994;2023-05-14T10:23:28;5.43;;;4.83;;
4323;SDS011;2175;51.018;6.994;2023-05-14T10:25:55;7.43;;;5.30;;
4323;SDS011;2175;51.018;6.994;2023-05-14T10:28:22;14.03;;;6.50;;
4323;SDS011;2175;51.018;6.994;2023-05-14T10:30:51;8.50;;;5.83;;
4323;SDS011;2175;51.018;6.994;2023-05-14T10:33:18;7.20;;;5.80;;
4323;SDS011;2175;51.018;6.994;2023-05-14T10:35:55;10.13;;;6.40;;
4323;SDS011;2175;51.018;6.994;2023-05-14T10:38:22;6.43;;;5.77;;
4323;SDS011;2175;51.018;6.994;2023-05-14T10:40:59;14.00;;;6.47;;
4323;SDS011;2175;51.018;6.994;2023-05-14T10:43:39;9.37;;;6.03;;
4323;SDS011;2175;51.018;6.994;2023-05-14T10:46:09;10.30;;;5.90;;
4323;SDS011;2175;51.018;6.994;2023-05-14T10:48:38;6.27;;;5.40;;
4323;SDS011;2175;51.018;6.994;2023-05-14T10:51:09;10.00;;;5.80;;
4323;SDS011;2175;51.018;6.994;2023-05-14T10:53:37;6.90;;;6.20;;
4323;SDS011;2175;51.018;6.994;2023-05-14T10:56:09;7.63;;;5.80;;
4323;SDS011;2175;51.018;6.994;2023-05-14T10:58:43;6.70;;;5.17;;
4323;SDS011;2175;51.018;6.994;2023-05-14T11:01:10;7.60;;;6.33;;
4323;SDS011;2175;51.018;6.994;2023-05-14T11:03:40;7.00;;;6.30;;
4323;SDS011;2175;51.018;6.994;2023-05-14T11:06:09;10.63;;;6.37;;
4323;SDS011;2175;51.018;6.994;2023-05-14T11:08:36;8.60;;;5.50;;
4323;SDS011;2175;51.018;6.994;2023-05-14T11:11:07;6.90;;;5.70;;
4323;SDS011;2175;51.018;6.994;2023-05-14T11:13:33;7.43;;;5.83;;
4323;SDS011;2175;51.018;6.994;2023-05-14T11:16:00;8.10;;;6.20;;
4323;SDS011;2175;51.018;6.994;2023-05-14T11:18:27;7.00;;;5.60;;
4323;SDS011;2175;51.018;6.994;2023-05-14T11:20:57;10.57;;;6.97;;
4323;SDS011;2175;51.018;6.994;2023-05-14T11:23:24;12.33;;;6.80;;
4323;SDS011;2175;51.018;6.994;2023-05-14T11:25:51;7.40;;;6.30;;
4323;SDS011;2175;51.018;6.994;2023-05-14T11:28:21;10.00;;;7.43;;
4323;SDS011;2175;51.018;6.994;2023-05-14T11:30:48;13.10;;;6.20;;
4323;SDS011;2175;51.018;6.994;2023-05-14T11:33:17;9.63;;;6.40;;
4323;SDS011;2175;51.018;6.994;2023-05-14T11:35:43;8.93;;;6.10;;
4323;SDS011;2175;51.018;6.994;2023-05-14T11:38:16;9.50;;;6.40;;
4323;SDS011;2175;51.018;6.994;2023-05-14T11:40:50;8.73;;;7.40;;
4323;SDS011;2175;51.018;6.994;2023-05-14T11:43:17;12.93;;;7.80;;
4323;SDS011;2175;51.018;6.994;2023-05-14T11:45:42;10.13;;;6.50;;
4323;SDS011;2175;51.018;6.994;2023-05-14T11:48:17;10.87;;;7.40;;
4323;SDS011;2175;51.018;6.994;2023-05-14T11:50:47;10.97;;;7.57;;
4323;SDS011;2175;51.018;6.994;2023-05-14T11:53:17;9.93;;;7.90;;
4323;SDS011;2175;51.018;6.994;2023-05-14T11:55:44;9.77;;;8.10;;
4323;SDS011;2175;51.018;6.994;2023-05-14T11:58:11;9.13;;;7.60;;
4323;SDS011;2175;51.018;6.994;2023-05-14T12:00:37;8.57;;;6.30;;
4323;SDS011;2175;51.018;6.994;2023-05-14T12:03:03;11.03;;;7.60;;
4323;SDS011;2175;51.018;6.994;2023-05-14T12:05:29;9.40;;;7.30;;
4323;SDS011;2175;51.018;6.994;2023-05-14T12:07:55;8.17;;;5.70;;
4323;SDS011;2175;51.018;6.994;2023-05-14T12:10:20;9.07;;;6.73;;
4323;SDS011;2175;51.018;6.994;2023-05-14T12:12:46;10.57;;;6.13;;
4323;SDS011;2175;51.018;6.994;2023-05-14T12:15:13;11.70;;;7.53;;
4323;SDS011;2175;51.018;6.994;2023-05-14T12:17:41;8.30;;;6.77;;
4323;SDS011;2175;51.018;6.994;2023-05-14T12:20:07;15.07;;;6.97;;
4323;SDS011;2175;51.018;6.994;2023-05-14T12:22:35;10.53;;;6.60;;
4323;SDS011;2175;51.018;6.994;2023-05-14T12:25:00;5.20;;;3.97;;
4323;SDS011;2175;51.018;6.994;2023-05-14T12:27:27;4.17;;;3.77;;
4323;SDS011;2175;51.018;6.994;2023-05-14T12:32:27;4.40;;;3.27;;
4323;SDS011;2175;51.018;6.994;2023-05-14T12:34:56;8.00;;;3.73;;
4323;SDS011;2175;51.018;6.994;2023-05-14T12:37:23;5.63;;;3.63;;
4323;SDS011;2175;51.018;6.994;2023-05-14T12:39:48;4.27;;;3.63;;
4323;SDS011;2175;51.018;6.994;2023-05-14T12:42:14;4.10;;;3.17;;
4323;SDS011;2175;51.018;6.994;2023-05-14T12:44:40;6.43;;;3.47;;
4323;SDS011;2175;51.018;6.994;2023-05-14T12:47:06;5.03;;;3.33;;
4323;SDS011;2175;51.018;6.994;2023-05-14T12:49:31;4.23;;;3.50;;
4323;SDS011;2175;51.018;6.994;2023-05-14T12:51:57;5.50;;;3.37;;
4323;SDS011;2175;51.018;6.994;2023-05-14T12:54:23;4.60;;;2.97;;
4323;SDS011;2175;51.018;6.994;2023-05-14T12:56:48;5.80;;;3.40;;
4323;SDS011;2175;51.018;6.994;2023-05-14T12:59:14;6.60;;;3.30;;
4323;SDS011;2175;51.018;6.994;2023-05-14T13:01:40;9.67;;;3.80;;
4323;SDS011;2175;51.018;6.994;2023-05-14T13:04:06;3.57;;;2.93;;
4323;SDS011;2175;51.018;6.994;2023-05-14T13:06:32;6.40;;;3.37;;
4323;SDS011;2175;51.018;6.994;2023-05-14T13:08:58;6.90;;;3.50;;
4323;SDS011;2175;51.018;6.994;2023-05-14T13:11:26;4.30;;;3.23;;
4323;SDS011;2175;51.018;6.994;2023-05-14T13:13:54;9.33;;;3.60;;
4323;SDS011;2175;51.018;6.994;2023-05-14T13:16:19;8.50;;;3.70;;
4323;SDS011;2175;51.018;6.994;2023-05-14T13:18:45;5.33;;;3.40;;
4323;SDS011;2175;51.018;6.994;2023-05-14T13:21:11;4.33;;;3.20;;
4323;SDS011;2175;51.018;6.994;2023-05-14T13:23:42;7.30;;;3.50;;
4323;SDS011;2175;51.018;6.994;2023-05-14T13:26:07;5.90;;;3.80;;
4323;SDS011;2175;51.018;6.994;2023-05-14T13:28:33;6.00;;;3.50;;
4323;SDS011;2175;51.018;6.994;2023-05-14T13:31:03;6.83;;;3.00;;
4323;SDS011;2175;51.018;6.994;2023-05-14T13:33:33;4.93;;;3.47;;
4323;SDS011;2175;51.018;6.994;2023-05-14T13:35:59;3.53;;;3.00;;
4323;SDS011;2175;51.018;6.994;2023-05-14T13:38:25;4.67;;;2.90;;
4323;SDS011;2175;51.018;6.994;2023-05-14T13:40:51;7.83;;;3.53;;
4323;SDS011;2175;51.018;6.994;2023-05-14T13:43:18;6.10;;;3.50;;
4323;SDS011;2175;51.018;6.994;2023-05-14T13:45:47;5.20;;;3.37;;
4323;SDS011;2175;51.018;6.994;2023-05-14T13:48:12;5.43;;;3.43;;
4323;SDS011;2175;51.018;6.994;2023-05-14T13:50:38;11.13;;;3.73;;
4323;SDS011;2175;51.018;6.994;2023-05-14T13:53:04;5.27;;;3.63;;
4323;SDS011;2175;51.018;6.994;2023-05-14T13:55:29;8.57;;;3.47;;
4323;SDS011;2175;51.018;6.994;2023-05-14T13:57:55;4.47;;;3.20;;
4323;SDS011;2175;51.018;6.994;2023-05-14T14:00:20;3.23;;;2.93;;
4323;SDS011;2175;51.018;6.994;2023-05-14T14:02:46;5.80;;;3.30;;
4323;SDS011;2175;51.018;6.994;2023-05-14T14:05:11;4.67;;;3.10;;
4323;SDS011;2175;51.018;6.994;2023-05-14T14:07:37;5.20;;;3.27;;
4323;SDS011;2175;51.018;6.994;2023-05-14T14:10:04;5.23;;;4.23;;
4323;SDS011;2175;51.018;6.994;2023-05-14T14:12:31;4.63;;;3.17;;
4323;SDS011;2175;51.018;6.994;2023-05-14T14:14:56;4.20;;;2.80;;
4323;SDS011;2175;51.018;6.994;2023-05-14T14:17:22;6.50;;;3.20;;
4323;SDS011;2175;51.018;6.994;2023-05-14T14:19:47;4.97;;;3.80;;
4323;SDS011;2175;51.018;6.994;2023-05-14T14:22:13;4.67;;;3.53;;
4323;SDS011;2175;51.018;6.994;2023-05-14T14:24:41;4.70;;;3.10;;
4323;SDS011;2175;51.018;6.994;2023-05-14T14:27:07;4.73;;;3.30;;
4323;SDS011;2175;51.018;6.994;2023-05-14T14:29:34;7.60;;;3.30;;
4323;SDS011;2175;51.018;6.994;2023-05-14T14:32:00;6.33;;;3.63;;
4323;SDS011;2175;51.018;6.994;2023-05-14T14:34:26;6.10;;;3.40;;
4323;SDS011;2175;51.018;6.994;2023-05-14T14:36:52;4.43;;;3.53;;
4323;SDS011;2175;51.018;6.994;2023-05-14T14:39:18;10.27;;;3.50;;
4323;SDS011;2175;51.018;6.994;2023-05-14T14:41:43;10.70;;;3.87;;
4323;SDS011;2175;51.018;6.994;2023-05-14T14:44:09;11.17;;;3.00;;
4323;SDS011;2175;51.018;6.994;2023-05-14T14:46:35;7.40;;;3.60;;
4323;SDS011;2175;51.018;6.994;2023-05-14T14:49:00;8.53;;;3.63;;
4323;SDS011;2175;51.018;6.994;2023-05-14T14:51:26;5.63;;;3.03;;
4323;SDS011;2175;51.018;6.994;2023-05-14T14:53:52;4.10;;;3.00;;
4323;SDS011;2175;51.018;6.994;2023-05-14T14:56:17;3.90;;;3.17;;
4323;SDS011;2175;51.018;6.994;2023-05-14T14:58:43;4.00;;;3.00;;
4323;SDS011;2175;51.018;6.994;2023-05-14T15:01:09;3.63;;;3.17;;
4323;SDS011;2175;51.018;6.994;2023-05-14T15:03:35;7.07;;;3.57;;
4323;SDS011;2175;51.018;6.994;2023-05-14T15:06:00;3.87;;;2.83;;